.
WxDataArchive / Data Records for 2007-12-27
2007-12-26 December 2007 2007-12-28

Data Records for Thursday, 27 December 2007

Time	Temp	Chill	HIndex	Humid	Dewpt	 Wind 	HiWind	WindDir	Rain 	Barom 
-----	----	-----	------	-----	-----	------	------	-------	-----	----- 
00:00	33.4	33.4	33.4	84	29.1	0	0	---	0.00	29.882 
00:05	33.2	33.2	33.2	84	28.9	0	0	---	0.00	29.892 
00:10	33.2	33.2	33.2	84	28.9	0	1	90	0.00	29.904 
00:15	33.2	33.2	33.2	84	28.9	0	1	90	0.00	29.907 
00:20	33.4	33.4	33.4	84	29.1	0	0	---	0.00	29.908 
00:25	33.4	33.4	33.4	84	29.1	0	0	---	0.00	29.904 
00:30	33.4	33.4	33.4	84	29.1	0	0	---	0.00	29.902 
00:35	33.2	33.2	33.2	84	28.9	0	0	---	0.00	29.895 
00:40	33.2	33.2	33.2	84	28.9	0	0	---	0.00	29.894 
00:45	33.2	33.2	33.2	84	28.9	0	0	---	0.00	29.892 
00:50	33.2	33.2	33.2	84	28.9	0	0	---	0.00	29.887 
00:55	33.2	33.2	33.2	84	28.9	0	0	---	0.00	29.875 
01:00	33.2	33.2	33.2	84	28.9	0	0	---	0.00	29.875 
01:05	33.2	33.2	33.2	85	29.2	0	1	90	0.00	29.868 
01:10	33.2	33.2	33.2	84	28.9	0	1	90	0.00	29.861 
01:15	33.4	33.4	33.4	84	29.1	0	1	90	0.00	29.858 
01:20	33.4	33.4	33.4	84	29.1	0	1	90	0.00	29.860 
01:25	33.5	33.5	33.5	84	29.2	0	1	90	0.00	29.859 
01:30	33.7	33.7	33.7	84	29.4	0	1	90	0.00	29.863 
01:35	33.8	33.8	33.8	84	29.5	0	1	90	0.00	29.867 
01:40	33.8	33.8	33.8	84	29.5	0	1	90	0.00	29.869 
01:45	34.0	34.0	34.0	84	29.7	0	1	90	0.00	29.872 
01:50	34.0	34.0	34.0	84	29.7	0	0	---	0.00	29.870 
01:55	34.0	34.0	34.0	85	30.0	0	0	---	0.00	29.867 
02:00	34.0	34.0	34.0	85	30.0	0	0	---	0.00	29.864 
02:05	33.8	33.8	33.8	86	30.1	0	0	---	0.00	29.862 
02:10	33.8	33.8	33.8	87	30.3	0	0	---	0.00	29.860 
02:15	33.8	33.8	33.8	88	30.6	0	1	90	0.00	29.858 
02:20	33.7	33.7	33.7	88	30.5	0	0	---	0.00	29.861 
02:25	33.7	33.7	33.7	89	30.8	0	0	---	0.00	29.860 
02:30	33.7	33.7	33.7	89	30.8	0	0	---	0.00	29.861 
02:35	33.7	33.7	33.7	90	31.1	0	0	---	0.00	29.861 
02:40	33.5	33.5	33.5	90	30.9	0	0	---	0.01	29.863 
02:45	33.5	33.5	33.5	91	31.2	0	0	---	0.00	29.860 
02:50	33.5	33.5	33.5	91	31.2	0	0	---	0.03	29.857 
02:55	33.5	33.5	33.5	91	31.2	0	0	---	0.01	29.854 
03:00	33.5	33.5	33.5	92	31.4	0	0	---	0.00	29.847 
03:05	33.4	33.4	33.4	92	31.3	0	0	---	0.00	29.850 
03:10	33.4	33.4	33.4	92	31.3	0	0	---	0.01	29.851 
03:15	33.4	33.4	33.4	92	31.3	0	0	---	0.00	29.854 
03:20	33.4	33.4	33.4	92	31.3	0	0	---	0.00	29.857 
03:25	33.4	33.4	33.4	93	31.6	0	0	---	0.00	29.858 
03:30	33.4	33.4	33.4	93	31.6	0	0	---	0.00	29.859 
03:35	33.4	33.4	33.4	93	31.6	0	0	---	0.00	29.860 
03:40	33.4	33.4	33.4	93	31.6	0	0	---	0.00	29.860 
03:45	33.2	33.2	33.2	93	31.4	0	0	---	0.00	29.858 
03:50	33.2	33.2	33.2	93	31.4	0	0	---	0.01	29.855 
03:55	33.2	33.2	33.2	93	31.4	0	0	---	0.00	29.855 
04:00	33.2	33.2	33.2	93	31.4	0	0	---	0.00	29.853 
04:05	33.1	33.1	33.1	93	31.3	0	0	---	0.00	29.853 
04:10	33.1	33.1	33.1	93	31.3	0	0	---	0.00	29.853 
04:15	33.1	33.1	33.1	93	31.3	0	0	---	0.01	29.853 
04:20	32.9	32.9	32.9	93	31.1	0	0	---	0.00	29.851 
04:25	32.9	32.9	32.9	94	31.4	0	0	---	0.00	29.852 
04:30	32.9	32.9	32.9	94	31.4	0	0	---	0.00	29.853 
04:35	32.8	32.8	32.8	94	31.3	0	0	---	0.00	29.852 
04:40	32.8	32.8	32.8	94	31.3	0	0	---	0.00	29.853 
04:45	32.7	32.7	32.7	94	31.2	0	0	---	0.00	29.852 
04:50	32.7	32.7	32.7	94	31.2	0	0	---	0.00	29.854 
04:55	32.7	32.7	32.7	94	31.2	0	0	---	0.00	29.854 
05:00	32.5	32.5	32.5	94	31.0	0	0	---	0.00	29.857 
05:05	32.5	32.5	32.5	94	31.0	0	0	---	0.00	29.862 
05:10	32.5	32.5	32.5	94	31.0	0	0	---	0.00	29.860 
05:15	32.5	32.5	32.5	94	31.0	0	0	---	0.00	29.859 
05:20	32.5	32.5	32.5	94	31.0	0	0	---	0.00	29.859 
05:25	32.5	32.5	32.5	94	31.0	0	0	---	0.00	29.860 
05:30	32.5	32.5	32.5	94	31.0	0	0	---	0.00	29.863 
05:35	32.5	32.5	32.5	94	31.0	0	0	---	0.00	29.863 
05:40	32.4	32.4	32.4	95	31.1	0	0	---	0.00	29.863 
05:45	32.4	32.4	32.4	95	31.1	0	0	---	0.00	29.864 
05:50	32.4	32.4	32.4	95	31.1	0	0	---	0.00	29.866 
05:55	32.4	32.4	32.4	95	31.1	0	0	---	0.00	29.866 
06:00	32.4	32.4	32.4	95	31.1	0	0	---	0.00	29.864 
06:05	32.4	32.4	32.4	95	31.1	0	0	---	0.00	29.867 
06:10	32.4	32.4	32.4	95	31.1	0	0	---	0.00	29.869 
06:15	32.5	32.5	32.5	95	31.2	0	0	---	0.00	29.868 
06:20	32.5	32.5	32.5	95	31.2	0	0	---	0.00	29.867 
06:25	32.5	32.5	32.5	95	31.2	0	0	---	0.00	29.869 
06:30	32.5	32.5	32.5	95	31.2	0	0	---	0.00	29.870 
06:35	32.5	32.5	32.5	95	31.2	0	0	---	0.00	29.875 
06:40	32.5	32.5	32.5	95	31.2	0	0	---	0.00	29.881 
06:45	32.5	32.5	32.5	95	31.2	0	0	---	0.00	29.884 
06:50	32.5	32.5	32.5	95	31.2	0	0	---	0.00	29.885 
06:55	32.5	32.5	32.5	95	31.2	0	1	90	0.00	29.886 
07:00	32.7	32.7	32.7	95	31.4	0	0	---	0.00	29.889 
07:05	32.7	32.7	32.7	95	31.4	0	0	---	0.00	29.890 
07:10	32.7	32.7	32.7	95	31.4	0	0	---	0.00	29.893 
07:15	32.7	32.7	32.7	95	31.4	0	0	---	0.00	29.899 
07:20	32.7	32.7	32.7	95	31.4	0	0	---	0.00	29.899 
07:25	32.7	32.7	32.7	95	31.4	0	0	---	0.00	29.900 
07:30	32.7	32.7	32.7	95	31.4	0	0	---	0.00	29.902 
07:35	32.7	32.7	32.7	96	31.7	0	0	---	0.00	29.902 
07:40	32.7	32.7	32.7	95	31.4	0	0	---	0.00	29.901 
07:45	32.5	32.5	32.5	95	31.2	0	0	---	0.00	29.900 
07:50	32.5	32.5	32.5	95	31.2	0	0	---	0.00	29.901 
07:55	32.5	32.5	32.5	96	31.5	0	0	---	0.00	29.902 
08:00	32.5	32.5	32.5	96	31.5	0	0	---	0.00	29.905 
08:05	32.5	32.5	32.5	96	31.5	0	1	90	0.00	29.912 
08:10	32.5	32.5	32.5	96	31.5	0	0	---	0.00	29.911 
08:15	32.7	32.7	32.7	96	31.7	0	0	---	0.00	29.912 
08:20	32.7	32.7	32.7	96	31.7	0	0	---	0.00	29.912 
08:25	32.7	32.7	32.7	96	31.7	0	0	---	0.00	29.912 
08:30	32.7	32.7	32.7	96	31.7	0	0	---	0.00	29.916 
08:35	32.8	32.8	32.8	96	31.8	0	0	---	0.00	29.917 
08:40	32.8	32.8	32.8	96	31.8	0	1	90	0.00	29.918 
08:45	32.9	32.9	32.9	96	31.9	0	1	90	0.00	29.918 
08:50	32.9	32.9	32.9	96	31.9	0	1	90	0.00	29.919 
08:55	32.9	32.9	32.9	96	31.9	0	3	248	0.00	29.930 
09:00	33.1	33.1	33.1	96	32.1	1	4	248	0.00	29.932 
09:05	33.1	33.1	33.1	96	32.1	0	3	248	0.00	29.932 
09:10	33.1	33.1	33.1	96	32.1	0	1	248	0.00	29.933 
09:15	33.1	33.1	33.1	96	32.1	0	1	248	0.00	29.935 
09:20	33.1	33.1	33.1	96	32.1	0	1	248	0.00	29.935 
09:25	33.1	33.1	33.1	96	32.1	0	1	248	0.00	29.935 
09:30	33.1	33.1	33.1	96	32.1	0	1	248	0.00	29.938 
09:35	33.2	33.2	33.2	96	32.2	0	1	248	0.01	29.940 
09:40	33.2	33.2	33.2	96	32.2	0	1	248	0.00	29.944 
09:45	33.2	33.2	33.2	96	32.2	0	1	248	0.00	29.943 
09:50	33.2	33.2	33.2	96	32.2	0	1	248	0.00	29.947 
09:55	33.4	33.4	33.4	96	32.4	0	2	248	0.00	29.949 
10:00	33.4	33.4	33.4	96	32.4	0	2	248	0.00	29.949 
10:05	33.4	33.4	33.4	96	32.4	0	1	248	0.00	29.953 
10:10	33.5	33.5	33.5	96	32.5	0	2	248	0.00	29.958 
10:15	33.5	33.5	33.5	96	32.5	0	2	248	0.00	29.952 
10:20	33.5	33.5	33.5	96	32.5	0	1	248	0.01	29.953 
10:25	33.7	33.7	33.7	96	32.7	0	2	248	0.00	29.955 
10:30	34.0	34.0	34.0	96	33.0	0	1	248	0.00	29.960 
10:35	34.1	34.1	34.1	96	33.1	0	2	248	0.01	29.961 
10:40	34.3	34.3	34.3	96	33.3	1	3	248	0.00	29.962 
10:45	34.3	34.3	34.3	96	33.3	0	3	248	0.00	29.962 
10:50	34.4	34.4	34.4	96	33.4	0	3	248	0.01	29.962 
10:55	34.3	34.3	34.3	96	33.3	1	4	248	0.00	29.963 
11:00	34.3	34.3	34.3	96	33.3	0	4	248	0.00	29.964 
11:05	34.3	34.3	34.3	96	33.3	0	2	248	0.01	29.972 
11:10	34.3	34.3	34.3	96	33.3	0	2	248	0.00	29.971 
11:15	34.4	34.4	34.4	96	33.4	1	4	248	0.00	29.978 
11:20	34.4	34.4	34.4	96	33.4	1	5	248	0.00	29.980 
11:25	34.4	34.4	34.4	96	33.4	2	5	248	0.01	29.980 
11:30	34.4	34.4	34.4	96	33.4	1	5	248	0.00	29.984 
11:35	34.6	34.6	34.6	96	33.6	1	4	248	0.00	29.986 
11:40	34.6	34.6	34.6	96	33.6	1	6	270	0.00	29.984 
11:45	34.7	34.7	34.7	96	33.7	1	5	248	0.00	29.984 
11:50	34.9	34.9	34.9	96	33.9	2	5	248	0.01	29.985 
11:55	34.9	34.9	34.9	96	33.9	1	4	248	0.00	29.989 
12:00	34.9	34.9	34.9	96	33.9	2	6	248	0.00	29.990 
12:05	34.7	34.7	34.7	96	33.7	2	6	270	0.00	29.992 
12:10	34.7	34.7	34.7	96	33.7	2	4	248	0.00	29.991 
12:15	34.9	34.9	34.9	96	33.9	1	4	248	0.00	29.990 
12:20	34.7	34.7	34.7	96	33.7	2	5	248	0.00	29.992 
12:25	34.7	34.7	34.7	96	33.7	2	6	248	0.00	29.994 
12:30	34.7	34.7	34.7	95	33.4	2	5	248	0.01	29.993 
12:35	34.7	34.7	34.7	95	33.4	2	6	248	0.00	29.994 
12:40	34.7	34.7	34.7	95	33.4	2	6	248	0.00	29.994 
12:45	34.7	34.7	34.7	95	33.4	3	9	248	0.00	29.994 
12:50	34.7	34.7	34.7	95	33.4	2	7	248	0.00	29.994 
12:55	34.7	34.7	34.7	95	33.4	2	7	248	0.00	29.995 
13:00	34.7	34.7	34.7	95	33.4	1	3	248	0.00	29.994 
13:05	34.7	34.7	34.7	95	33.4	2	5	248	0.00	29.994 
13:10	34.9	34.9	34.9	95	33.6	1	4	248	0.00	29.994 
13:15	34.9	34.9	34.9	95	33.6	2	6	248	0.00	29.994 
13:20	34.9	34.9	34.9	95	33.6	1	4	248	0.00	29.996 
13:25	35.0	35.0	35.0	95	33.7	1	5	248	0.00	30.002 
13:30	35.0	35.0	35.0	95	33.7	2	5	248	0.00	30.004 
13:35	34.9	34.9	34.9	95	33.6	2	4	248	0.00	30.007 
13:40	34.9	34.9	34.9	95	33.6	2	5	248	0.00	30.010 
13:45	34.9	34.9	34.9	95	33.6	1	6	248	0.00	30.009 
13:50	35.0	35.0	35.0	95	33.7	1	5	248	0.00	30.010 
13:55	35.0	35.0	35.0	95	33.7	2	6	248	0.00	30.012 
14:00	35.0	35.0	35.0	95	33.7	2	7	270	0.00	30.017 
14:05	35.0	35.0	35.0	95	33.7	1	4	248	0.00	30.018 
14:10	35.0	35.0	35.0	95	33.7	1	6	248	0.00	30.019 
14:15	35.2	35.2	35.2	95	33.9	1	3	248	0.00	30.018 
14:20	35.2	35.2	35.2	95	33.9	1	4	292	0.00	30.022 
14:25	35.0	35.0	35.0	94	33.5	1	4	248	0.00	30.023 
14:30	35.0	35.0	35.0	94	33.5	1	3	248	0.00	30.023 
14:35	35.0	35.0	35.0	94	33.5	1	3	248	0.00	30.023 
14:40	35.0	35.0	35.0	94	33.5	2	6	248	0.00	30.024 
14:45	35.0	35.0	35.0	94	33.5	1	2	248	0.00	30.027 
14:50	34.9	34.9	34.9	94	33.4	1	5	270	0.00	30.027 
14:55	34.9	34.9	34.9	94	33.4	2	5	248	0.00	30.031 
15:00	34.9	34.9	34.9	94	33.4	1	2	270	0.00	30.030 
15:05	34.9	34.9	34.9	94	33.4	2	6	270	0.00	30.034 
15:10	34.7	34.7	34.7	94	33.2	2	10	270	0.00	30.039 
15:15	34.7	34.7	34.7	94	33.2	1	4	270	0.00	30.042 
15:20	34.9	34.9	34.9	94	33.4	2	7	248	0.00	30.047 
15:25	34.9	34.9	34.9	94	33.4	1	4	270	0.00	30.051 
15:30	34.7	34.7	34.7	94	33.2	2	7	248	0.00	30.052 
15:35	34.7	34.7	34.7	94	33.2	1	5	248	0.00	30.055 
15:40	34.7	34.7	34.7	94	33.2	1	5	248	0.00	30.056 
15:45	34.7	34.7	34.7	94	33.2	1	5	248	0.00	30.057 
15:50	34.9	34.9	34.9	94	33.4	1	5	248	0.00	30.058 
15:55	34.9	34.9	34.9	95	33.6	1	4	248	0.00	30.059 
16:00	34.7	34.7	34.7	95	33.4	1	3	248	0.00	30.066 
16:05	34.7	34.7	34.7	95	33.4	1	4	248	0.00	30.066 
16:10	34.7	34.7	34.7	95	33.4	1	4	248	0.00	30.069 
16:15	34.9	34.9	34.9	95	33.6	0	3	248	0.00	30.072 
16:20	34.9	34.9	34.9	95	33.6	1	6	248	0.00	30.074 
16:25	34.9	34.9	34.9	95	33.6	1	3	248	0.00	30.077 
16:30	34.9	34.9	34.9	95	33.6	1	4	248	0.00	30.077 
16:35	34.7	34.7	34.7	95	33.4	1	3	248	0.00	30.083 
16:40	34.7	34.7	34.7	95	33.4	1	4	270	0.00	30.086 
16:45	34.7	34.7	34.7	95	33.4	0	2	248	0.00	30.087 
16:50	34.7	34.7	34.7	95	33.4	1	4	248	0.00	30.088 
16:55	34.6	34.6	34.6	95	33.3	0	3	248	0.00	30.089 
17:00	34.6	34.6	34.6	95	33.3	1	3	248	0.00	30.093 
17:05	34.6	34.6	34.6	95	33.3	0	1	270	0.00	30.096 
17:10	34.6	34.6	34.6	95	33.3	1	5	270	0.00	30.101 
17:15	34.6	34.6	34.6	95	33.3	1	4	248	0.00	30.104 
17:20	34.6	34.6	34.6	95	33.3	1	4	248	0.00	30.106 
17:25	34.6	34.6	34.6	95	33.3	1	3	248	0.00	30.110 
17:30	34.6	34.6	34.6	95	33.3	0	1	248	0.00	30.118 
17:35	34.6	34.6	34.6	95	33.3	0	2	248	0.00	30.119 
17:40	34.6	34.6	34.6	95	33.3	1	3	248	0.00	30.120 
17:45	34.6	34.6	34.6	95	33.3	0	1	248	0.00	30.120 
17:50	34.4	34.4	34.4	95	33.1	1	4	248	0.00	30.123 
17:55	34.4	34.4	34.4	95	33.1	0	2	248	0.00	30.123 
18:00	34.4	34.4	34.4	95	33.1	0	4	248	0.00	30.127 
18:05	34.4	34.4	34.4	95	33.1	0	3	248	0.00	30.131 
18:10	34.4	34.4	34.4	96	33.4	0	1	248	0.00	30.130 
18:15	34.4	34.4	34.4	96	33.4	0	1	248	0.00	30.132 
18:20	34.4	34.4	34.4	96	33.4	0	2	248	0.00	30.134 
18:25	34.4	34.4	34.4	96	33.4	0	1	248	0.00	30.135 
18:30	34.4	34.4	34.4	96	33.4	0	1	248	0.00	30.137 
18:35	34.4	34.4	34.4	96	33.4	0	1	248	0.00	30.138 
18:40	34.4	34.4	34.4	96	33.4	0	1	248	0.00	30.140 
18:45	34.4	34.4	34.4	96	33.4	0	1	248	0.00	30.144 
18:50	34.4	34.4	34.4	96	33.4	0	1	248	0.00	30.144 
18:55	34.3	34.3	34.3	96	33.3	0	1	248	0.00	30.142 
19:00	34.3	34.3	34.3	96	33.3	0	0	---	0.00	30.139 
19:05	34.3	34.3	34.3	96	33.3	0	0	---	0.00	30.143 
19:10	34.3	34.3	34.3	96	33.3	0	0	---	0.00	30.144 
19:15	34.1	34.1	34.1	96	33.1	0	0	---	0.00	30.147 
19:20	34.1	34.1	34.1	96	33.1	0	0	---	0.00	30.143 
19:25	34.1	34.1	34.1	96	33.1	0	0	---	0.00	30.141 
19:30	34.0	34.0	34.0	96	33.0	0	1	248	0.00	30.140 
19:35	33.8	33.8	33.8	96	32.8	0	0	---	0.00	30.141 
19:40	33.8	33.8	33.8	96	32.8	0	0	---	0.00	30.140 
19:45	33.8	33.8	33.8	96	32.8	0	1	248	0.00	30.146 
19:50	33.7	33.7	33.7	96	32.7	0	0	---	0.00	30.147 
19:55	33.7	33.7	33.7	96	32.7	0	0	---	0.00	30.150 
20:00	33.7	33.7	33.7	96	32.7	0	1	248	0.00	30.150 
20:05	33.5	33.5	33.5	96	32.5	0	1	248	0.00	30.153 
20:10	33.4	33.4	33.4	96	32.4	0	2	248	0.00	30.156 
20:15	33.4	33.4	33.4	96	32.4	0	1	248	0.00	30.162 
20:20	33.2	33.2	33.2	96	32.2	0	0	---	0.00	30.165 
20:25	33.2	33.2	33.2	96	32.2	0	1	248	0.00	30.166 
20:30	33.1	33.1	33.1	95	31.8	0	1	248	0.00	30.166 
20:35	33.1	33.1	33.1	95	31.8	0	1	248	0.00	30.167 
20:40	32.9	32.9	32.9	95	31.6	0	2	270	0.00	30.168 
20:45	32.8	32.8	32.8	95	31.5	0	1	270	0.00	30.168 
20:50	32.8	32.8	32.8	95	31.5	0	0	---	0.00	30.170 
20:55	32.8	32.8	32.8	94	31.3	0	1	270	0.00	30.168 
21:00	32.8	32.8	32.8	94	31.3	0	1	270	0.00	30.174 
21:05	32.7	32.7	32.7	94	31.2	0	0	---	0.00	30.174 
21:10	32.7	32.7	32.7	94	31.2	0	0	---	0.00	30.174 
21:15	32.7	32.7	32.7	93	30.9	0	0	---	0.00	30.177 
21:20	32.5	32.5	32.5	93	30.7	0	1	270	0.00	30.182 
21:25	32.5	32.5	32.5	93	30.7	0	0	---	0.00	30.178 
21:30	32.5	32.5	32.5	92	30.4	0	1	270	0.00	30.171 
21:35	32.4	32.4	32.4	92	30.3	0	2	338	0.00	30.170 
21:40	32.2	32.2	32.2	92	30.1	0	1	338	0.00	30.171 
21:45	32.2	32.2	32.2	91	29.9	0	0	---	0.00	30.172 
21:50	32.2	32.2	32.2	91	29.9	0	0	---	0.00	30.174 
21:55	32.2	32.2	32.2	91	29.9	0	0	---	0.00	30.174 
22:00	32.2	32.2	32.2	91	29.9	0	0	---	0.00	30.173 
22:05	32.1	32.1	32.1	90	29.5	0	0	---	0.00	30.171 
22:10	31.9	31.9	31.9	90	29.3	0	0	---	0.00	30.169 
22:15	31.9	31.9	31.9	89	29.0	0	1	338	0.00	30.168 
22:20	31.9	31.9	31.9	89	29.0	0	0	---	0.00	30.168 
22:25	31.9	31.9	31.9	89	29.0	0	0	---	0.00	30.169 
22:30	31.8	31.8	31.8	89	28.9	0	0	---	0.00	30.169 
22:35	31.8	31.8	31.8	89	28.9	0	0	---	0.00	30.168 
22:40	31.8	31.8	31.8	88	28.7	0	2	338	0.00	30.171 
22:45	31.6	31.6	31.6	88	28.5	0	2	338	0.00	30.177 
22:50	31.6	31.6	31.6	87	28.2	0	1	338	0.00	30.181 
22:55	31.6	31.6	31.6	87	28.2	0	1	0	0.00	30.182 
23:00	31.6	31.6	31.6	87	28.2	0	0	---	0.00	30.181 
23:05	31.6	31.6	31.6	87	28.2	0	1	0	0.00	30.176 
23:10	31.5	31.5	31.5	86	27.8	0	2	0	0.00	30.181 
23:15	31.5	31.5	31.5	85	27.5	0	2	0	0.00	30.181 
23:20	31.5	31.5	31.5	85	27.5	0	2	0	0.00	30.184 
23:25	31.5	31.5	31.5	84	27.2	0	1	0	0.00	30.183 
23:30	31.5	31.5	31.5	85	27.5	0	1	0	0.00	30.182 
23:35	31.3	31.3	31.3	84	27.0	0	1	0	0.00	30.178 
23:40	31.3	31.3	31.3	84	27.0	0	1	0	0.00	30.182 
23:45	31.3	31.3	31.3	84	27.0	0	2	0	0.00	30.182 
23:50	31.3	31.3	31.3	84	27.0	0	1	22	0.00	30.181 
23:55	31.3	31.3	31.3	84	27.0	0	1	22	0.00	30.183 

CoCoRaHS
IN-AL-39
A2 Web Hosting
Creative Commons License
GoDaddy
Look for:

loaded 2017-10-19 12:32:30 • last modified 2010-11-18 10:43:29
Privacy PolicyDisclaimer
• wx.awcolley.com is powered by PmWiki v.2002016 •
• all content (unless otherwise noted) © 2017 A W Colley